createdAt,value
2017-02-16T00:00:48.021Z,29.25
2017-02-16T00:01:58.356Z,29.06
2017-02-16T00:03:07.548Z,28.97
2017-02-16T00:04:17.503Z,29.25
2017-02-16T00:05:27.055Z,29.16
2017-02-16T00:06:35.824Z,29.25
2017-02-16T00:07:45.768Z,29.35
2017-02-16T00:08:55.330Z,28.97
2017-02-16T00:10:04.926Z,28.97
2017-02-16T00:11:14.487Z,29.25
2017-02-16T00:12:24.050Z,29.35
2017-02-16T00:13:33.616Z,28.97
2017-02-16T00:14:43.578Z,28.77
2017-02-16T00:15:53.566Z,29.55
2017-02-16T00:17:03.889Z,29.35
2017-02-16T00:18:13.858Z,29.16
2017-02-16T00:19:23.065Z,29.43
2017-02-16T00:20:33.381Z,29.06
2017-02-16T00:21:42.540Z,29.35
2017-02-16T00:22:52.120Z,29.53
2017-02-16T00:24:01.677Z,28.85
2017-02-16T00:25:10.835Z,29.45
2017-02-16T00:26:20.807Z,29.43
2017-02-16T00:27:30.739Z,29.16
2017-02-16T00:28:39.878Z,29.05
2017-02-16T00:29:50.184Z,29.43
2017-02-16T00:31:00.919Z,29.53
2017-02-16T00:32:10.836Z,29.43
2017-02-16T00:33:19.991Z,29.53
2017-02-16T00:34:29.934Z,29.55
2017-02-16T00:35:39.852Z,29.25
2017-02-16T00:36:49.761Z,29.53
2017-02-16T00:37:59.325Z,29.53
2017-02-16T00:39:08.120Z,29.53
2017-02-16T00:40:18.080Z,29.14
2017-02-16T00:41:28.404Z,29.34
2017-02-16T00:42:37.566Z,29.43
2017-02-16T00:43:46.748Z,29.05
2017-02-16T00:44:56.327Z,29.43
2017-02-16T00:46:05.523Z,29.14
2017-02-16T00:47:14.709Z,29.53
2017-02-16T00:48:24.249Z,29.43
2017-02-16T00:49:34.537Z,29.43
2017-02-16T00:50:44.510Z,29.34
2017-02-16T00:51:54.070Z,29.53
2017-02-16T00:53:03.260Z,29.24
2017-02-16T00:54:13.188Z,29.43
2017-02-16T00:55:23.087Z,29.34
2017-02-16T00:56:32.622Z,29.14
2017-02-16T00:57:41.754Z,29.14
2017-02-16T00:58:51.259Z,29.53
2017-02-16T01:00:00.836Z,29.24
2017-02-16T01:01:10.019Z,29.43
2017-02-16T01:02:19.568Z,29.43
2017-02-16T01:03:28.745Z,29.05
2017-02-16T01:04:39.102Z,29.14
2017-02-16T01:05:48.679Z,29.24
2017-02-16T01:06:58.228Z,29.53
2017-02-16T01:08:07.763Z,29.53
2017-02-16T01:09:17.696Z,29.63
2017-02-16T01:10:28.394Z,29.34
2017-02-16T01:11:38.705Z,29.43
2017-02-16T01:12:48.598Z,29.63
2017-02-16T01:13:58.524Z,29.24
2017-02-16T01:15:08.034Z,29.43
2017-02-16T01:16:17.600Z,29.53
2017-02-16T01:17:27.210Z,29.14
2017-02-16T01:18:37.177Z,29.14
2017-02-16T01:19:46.739Z,28.95
2017-02-16T01:20:55.904Z,29.63
2017-02-16T01:22:05.033Z,29.63
2017-02-16T01:23:15.367Z,29.53
2017-02-16T01:24:24.947Z,29.63
2017-02-16T01:25:33.726Z,29.63
2017-02-16T01:26:43.636Z,28.95
2017-02-16T01:27:53.956Z,29.63
2017-02-16T01:29:03.129Z,29.63
2017-02-16T01:30:13.075Z,28.95
2017-02-16T01:31:22.807Z,29.63
2017-02-16T01:32:32.722Z,29.72
2017-02-16T01:33:41.908Z,29.72
2017-02-16T01:34:51.483Z,29.72
2017-02-16T01:36:00.629Z,29.14
2017-02-16T01:37:10.523Z,29.24
2017-02-16T01:38:20.840Z,29.82
2017-02-16T01:39:30.403Z,29.72
2017-02-16T01:40:40.317Z,29.14
2017-02-16T01:41:49.447Z,29.82
2017-02-16T01:42:59.015Z,29.82
2017-02-16T01:44:08.932Z,29.82
2017-02-16T01:45:18.799Z,29.82
2017-02-16T01:46:27.935Z,29.82
2017-02-16T01:47:37.078Z,29.71
2017-02-16T01:48:46.970Z,29.71
2017-02-16T01:49:56.149Z,29.82
2017-02-16T01:51:05.712Z,29.72
2017-02-16T01:52:15.275Z,29.82
2017-02-16T01:53:25.243Z,29.71
2017-02-16T01:54:35.919Z,29.71
2017-02-16T01:55:45.484Z,29.71
2017-02-16T01:56:54.258Z,29.82
2017-02-16T01:58:04.151Z,29.71
2017-02-16T01:59:13.700Z,30
2017-02-16T02:00:23.648Z,29.61
2017-02-16T02:01:33.601Z,29.9
2017-02-16T02:02:43.527Z,29.71
2017-02-16T02:03:53.459Z,29.71
2017-02-16T02:05:03.789Z,29.71
2017-02-16T02:06:14.166Z,29.61
2017-02-16T02:07:23.309Z,30.1
2017-02-16T02:08:32.822Z,30
2017-02-16T02:09:42.771Z,30
2017-02-16T02:10:52.696Z,30.1
2017-02-16T02:12:02.241Z,29.61
2017-02-16T02:13:12.149Z,29.52
2017-02-16T02:14:20.946Z,30.1
2017-02-16T02:15:31.293Z,30.1
2017-02-16T02:16:40.491Z,30.19
2017-02-16T02:17:50.418Z,30.19
2017-02-16T02:18:59.553Z,30.1
2017-02-16T02:20:09.101Z,30.1
2017-02-16T02:21:19.038Z,30.29
2017-02-16T02:22:28.214Z,30.1
2017-02-16T02:23:37.772Z,30.38
2017-02-16T02:24:48.077Z,29.9
2017-02-16T02:25:58.380Z,29.9
2017-02-16T02:27:08.334Z,30.29
2017-02-16T02:28:17.518Z,30
2017-02-16T02:29:27.081Z,29.9
2017-02-16T02:30:36.636Z,29.9
2017-02-16T02:31:46.581Z,30.38
2017-02-16T02:32:56.488Z,30.29
2017-02-16T02:34:06.441Z,29.8
2017-02-16T02:35:16.005Z,29.9
2017-02-16T02:36:25.556Z,29.8
2017-02-16T02:37:35.506Z,30.29
2017-02-16T02:38:45.071Z,30.19
2017-02-16T02:39:54.227Z,30.38
2017-02-16T02:41:03.735Z,30
2017-02-16T02:42:12.916Z,30.38
2017-02-16T02:43:23.235Z,30.1
2017-02-16T02:44:33.576Z,30.48
2017-02-16T02:45:43.521Z,30.58
2017-02-16T02:46:53.049Z,30.58
2017-02-16T02:48:02.964Z,30.38
2017-02-16T02:49:12.142Z,30.29
2017-02-16T02:50:21.675Z,30.19
2017-02-16T02:51:31.152Z,30.38
2017-02-16T02:52:41.054Z,30.58
2017-02-16T02:53:50.625Z,30.58
2017-02-16T02:54:59.437Z,30.58
2017-02-16T02:56:09.404Z,30.19
2017-02-16T02:57:18.961Z,30.58
2017-02-16T02:58:28.493Z,30.29
2017-02-16T02:59:38.383Z,30.29
2017-02-16T03:00:47.961Z,30.58
2017-02-16T03:01:58.290Z,30.48
2017-02-16T03:03:07.883Z,30.29
2017-02-16T03:04:17.822Z,30.29
2017-02-16T03:05:27.922Z,30.38
2017-02-16T03:06:37.852Z,30.38
2017-02-16T03:07:47.034Z,30.29
2017-02-16T03:08:56.978Z,30.38
2017-02-16T03:10:06.939Z,30.38
2017-02-16T03:11:16.505Z,30.48
2017-02-16T03:12:25.673Z,30.38
2017-02-16T03:13:35.637Z,30.58
2017-02-16T03:14:44.798Z,30.48
2017-02-16T03:15:54.324Z,30.29
2017-02-16T03:17:03.506Z,30.38
2017-02-16T03:18:13.419Z,30.38
2017-02-16T03:19:22.181Z,30.48
2017-02-16T03:20:32.520Z,30.38
2017-02-16T03:21:42.477Z,30.19
2017-02-16T03:22:52.803Z,30.48
2017-02-16T03:24:03.125Z,30.58
2017-02-16T03:25:11.950Z,30.67
2017-02-16T03:26:20.723Z,30.67
2017-02-16T03:27:30.622Z,30.58
2017-02-16T03:28:40.559Z,30.58
2017-02-16T03:29:50.507Z,30.48
2017-02-16T03:31:00.068Z,30.48
2017-02-16T03:32:09.632Z,30.58
2017-02-16T03:33:19.184Z,30.67
2017-02-16T03:34:28.749Z,30.67
2017-02-16T03:35:38.697Z,30.58
2017-02-16T03:36:47.859Z,30.58
2017-02-16T03:37:58.190Z,30.48
2017-02-16T03:39:07.710Z,30.48
2017-02-16T03:40:17.655Z,30.38
2017-02-16T03:41:26.842Z,30.48
2017-02-16T03:42:36.418Z,30.48
2017-02-16T03:43:46.380Z,30.48
2017-02-16T03:44:56.706Z,30.48
2017-02-16T03:46:05.492Z,30.48
2017-02-16T03:47:14.683Z,30.29
2017-02-16T03:48:24.267Z,30.67
2017-02-16T03:49:34.626Z,30.48
2017-02-16T03:50:43.798Z,30.48
2017-02-16T03:51:53.318Z,30.58
2017-02-16T03:53:03.676Z,30.38
2017-02-16T03:54:13.272Z,30.58
2017-02-16T03:55:22.830Z,30.48
2017-02-16T03:56:32.780Z,30.67
2017-02-16T03:57:42.327Z,30.77
2017-02-16T03:58:52.606Z,30.67
2017-02-16T04:00:02.941Z,30.48
2017-02-16T04:01:12.108Z,30.67
2017-02-16T04:02:21.267Z,30.67
2017-02-16T04:03:30.834Z,30.67
2017-02-16T04:04:40.791Z,30.85
2017-02-16T04:05:50.755Z,30.67
2017-02-16T04:07:00.701Z,30.77
2017-02-16T04:08:09.885Z,30.76
2017-02-16T04:09:19.461Z,30.67
2017-02-16T04:10:28.642Z,30.76
2017-02-16T04:11:38.592Z,30.77
2017-02-16T04:12:48.558Z,30.66
2017-02-16T04:13:58.529Z,30.67
2017-02-16T04:15:09.245Z,30.87
2017-02-16T04:16:19.231Z,30.94
2017-02-16T04:17:29.187Z,30.76
2017-02-16T04:18:38.721Z,30.76
2017-02-16T04:19:48.676Z,30.85
2017-02-16T04:20:58.255Z,30.56
2017-02-16T04:22:07.411Z,30.67
2017-02-16T04:23:16.926Z,30.67
2017-02-16T04:24:26.877Z,31.04
2017-02-16T04:25:36.827Z,31.04
2017-02-16T04:26:46.374Z,30.66
2017-02-16T04:27:56.712Z,30.56
2017-02-16T04:29:06.644Z,30.56
2017-02-16T04:30:16.554Z,30.56
2017-02-16T04:31:25.283Z,30.67
2017-02-16T04:32:34.795Z,30.56
2017-02-16T04:33:44.767Z,31.35
2017-02-16T04:34:53.958Z,30.48
2017-02-16T04:36:04.634Z,30.48
2017-02-16T04:37:14.612Z,30.46
2017-02-16T04:38:24.173Z,30.58
2017-02-16T04:39:34.139Z,30.46
2017-02-16T04:40:43.315Z,30.56
2017-02-16T04:41:52.841Z,30.46
2017-02-16T04:43:02.751Z,31.04
2017-02-16T04:44:11.530Z,31.04
2017-02-16T04:45:21.072Z,31.24
2017-02-16T04:46:30.565Z,30.37
2017-02-16T04:47:39.724Z,30.56
2017-02-16T04:48:50.447Z,30.46
2017-02-16T04:49:59.582Z,30.46
2017-02-16T04:51:09.918Z,31.14
2017-02-16T04:52:19.877Z,30.56
2017-02-16T04:53:29.064Z,31.04
2017-02-16T04:54:38.616Z,31.04
2017-02-16T04:55:48.488Z,30.56
2017-02-16T04:56:58.780Z,31.14
2017-02-16T04:58:07.975Z,31.14
2017-02-16T04:59:17.511Z,31.04
2017-02-16T05:00:27.438Z,30.46
2017-02-16T05:01:37.400Z,31.33
2017-02-16T05:02:46.966Z,31.33
2017-02-16T05:03:56.528Z,30.46
2017-02-16T05:05:06.086Z,31.14
2017-02-16T05:06:14.883Z,30.46
2017-02-16T05:07:24.436Z,30.46
2017-02-16T05:08:33.993Z,30.46
2017-02-16T05:09:43.575Z,30.46
2017-02-16T05:10:53.128Z,30.46
2017-02-16T05:12:02.315Z,30.46
2017-02-16T05:13:12.231Z,30.46
2017-02-16T05:14:22.530Z,30.46
2017-02-16T05:15:32.487Z,30.46
2017-02-16T05:16:42.037Z,30.37
2017-02-16T05:17:50.818Z,30.46
2017-02-16T05:19:00.341Z,30.46
2017-02-16T05:20:09.923Z,30.94
2017-02-16T05:21:19.871Z,30.46
2017-02-16T05:22:29.047Z,30.46
2017-02-16T05:23:38.949Z,30.46
2017-02-16T05:24:49.238Z,30.46
2017-02-16T05:25:58.767Z,30.66
2017-02-16T05:27:07.953Z,30.46
2017-02-16T05:28:17.095Z,30.56
2017-02-16T05:29:26.242Z,30.76
2017-02-16T05:30:35.412Z,30.66
2017-02-16T05:31:44.587Z,30.66
2017-02-16T05:32:53.766Z,30.76
2017-02-16T05:34:04.099Z,30.37
2017-02-16T05:35:13.639Z,30.76
2017-02-16T05:36:23.133Z,30.76
2017-02-16T05:37:32.262Z,30.29
2017-02-16T05:38:41.822Z,30.37
2017-02-16T05:39:51.024Z,30.58
2017-02-16T05:41:00.196Z,30.56
2017-02-16T05:42:09.751Z,30.37
2017-02-16T05:43:19.273Z,30.48
2017-02-16T05:44:29.234Z,30.58
2017-02-16T05:45:38.046Z,30.48
2017-02-16T05:46:47.029Z,30.48
2017-02-16T05:47:56.604Z,30.38
2017-02-16T05:49:06.939Z,29.8
2017-02-16T05:50:16.902Z,30.19
2017-02-16T05:51:26.487Z,30.29
2017-02-16T05:52:35.638Z,30.1
2017-02-16T05:53:45.902Z,30.19
2017-02-16T05:54:55.405Z,29.9
2017-02-16T05:56:04.554Z,29.61
2017-02-16T05:57:14.521Z,29.71
2017-02-16T05:58:23.735Z,29.71
2017-02-16T05:59:32.926Z,29.8
2017-02-16T06:00:42.120Z,29.8
2017-02-16T06:01:52.454Z,29.52
2017-02-16T06:03:02.007Z,29.71
2017-02-16T06:04:11.205Z,29.9
2017-02-16T06:05:20.778Z,29.8
2017-02-16T06:06:30.301Z,29.8
2017-02-16T06:07:39.827Z,29.71
2017-02-16T06:08:49.392Z,29.8
2017-02-16T06:09:59.729Z,29.42
2017-02-16T06:11:09.279Z,29.53
2017-02-16T06:12:19.425Z,29.71
2017-02-16T06:13:29.364Z,29.72
2017-02-16T06:14:39.314Z,29.53
2017-02-16T06:15:49.239Z,29.14
2017-02-16T06:16:58.786Z,29.53
2017-02-16T06:18:08.350Z,28.95
2017-02-16T06:19:17.535Z,29.53
2017-02-16T06:20:27.098Z,29.43
2017-02-16T06:21:36.658Z,29.53
2017-02-16T06:22:46.593Z,29.53
2017-02-16T06:23:56.157Z,29.53
2017-02-16T06:25:05.333Z,29.14
2017-02-16T06:26:15.284Z,29.05
2017-02-16T06:27:24.989Z,29.53
2017-02-16T06:28:34.133Z,29.34
2017-02-16T06:29:43.260Z,29.43
2017-02-16T06:30:52.795Z,29.53
2017-02-16T06:32:02.692Z,29.53
2017-02-16T06:33:12.636Z,29.43
2017-02-16T06:34:21.411Z,29.53
2017-02-16T06:35:31.000Z,29.63
2017-02-16T06:36:40.179Z,29.34
2017-02-16T06:37:49.758Z,29.24
2017-02-16T06:39:00.119Z,29.63
2017-02-16T06:40:10.064Z,28.76
2017-02-16T06:41:20.014Z,29.24
2017-02-16T06:42:29.599Z,29.24
2017-02-16T06:43:38.791Z,29.14
2017-02-16T06:44:48.359Z,29.05
2017-02-16T06:45:58.324Z,28.85
2017-02-16T06:47:08.647Z,28.76
2017-02-16T06:48:17.828Z,29.34
2017-02-16T06:49:27.810Z,29.14
2017-02-16T06:50:38.148Z,29.05
2017-02-16T06:51:48.116Z,29.14
2017-02-16T06:52:58.055Z,29.14
2017-02-16T06:54:07.564Z,28.95
2017-02-16T06:55:17.135Z,29.24
2017-02-16T06:56:26.311Z,29.16
2017-02-16T06:57:36.243Z,29.25
2017-02-16T06:58:46.173Z,28.66
2017-02-16T06:59:56.069Z,29.05
2017-02-16T07:01:06.081Z,28.77
2017-02-16T07:02:19.933Z,28.87
2017-02-16T07:03:29.493Z,29.16
2017-02-16T07:04:39.058Z,28.76
2017-02-16T07:05:48.627Z,28.87
2017-02-16T07:06:58.573Z,29.06
2017-02-16T07:08:08.914Z,28.87
2017-02-16T07:09:18.476Z,28.77
2017-02-16T07:10:28.439Z,29.16
2017-02-16T07:11:38.384Z,28.97
2017-02-16T07:12:47.941Z,28.67
2017-02-16T07:13:57.516Z,29.06
2017-02-16T07:15:07.797Z,28.87
2017-02-16T07:16:17.705Z,28.87
2017-02-16T07:17:26.825Z,28.58
2017-02-16T07:18:36.798Z,28.87
2017-02-16T07:19:46.390Z,28.67
2017-02-16T07:20:56.713Z,28.77
2017-02-16T07:22:06.653Z,28.87
2017-02-16T07:23:16.988Z,28.77
2017-02-16T07:24:27.294Z,28.67
2017-02-16T07:25:36.429Z,28.67
2017-02-16T07:26:46.010Z,28.67
2017-02-16T07:27:55.958Z,28.67
2017-02-16T07:29:06.298Z,28.58
2017-02-16T07:30:15.090Z,28.67
2017-02-16T07:31:25.050Z,28.48
2017-02-16T07:32:34.986Z,28.77
2017-02-16T07:33:44.587Z,28.77
2017-02-16T07:34:54.182Z,28.67
2017-02-16T07:36:04.464Z,28.67
2017-02-16T07:37:13.975Z,28.48
2017-02-16T07:38:23.526Z,28.48
2017-02-16T07:39:33.088Z,28.58
2017-02-16T07:40:41.905Z,28.48
2017-02-16T07:41:51.902Z,28.58
2017-02-16T07:43:01.058Z,28.67
2017-02-16T07:44:10.958Z,28.58
2017-02-16T07:45:20.527Z,28.48
2017-02-16T07:46:30.462Z,28.58
2017-02-16T07:47:39.631Z,28.67
2017-02-16T07:48:49.596Z,28.58
2017-02-16T07:49:59.504Z,28.5
2017-02-16T07:51:08.639Z,28.48
2017-02-16T07:52:17.820Z,28.4
2017-02-16T07:53:26.990Z,28.39
2017-02-16T07:54:36.557Z,28.48
2017-02-16T07:55:45.698Z,28.39
2017-02-16T07:56:55.655Z,28.19
2017-02-16T07:58:05.977Z,28.5
2017-02-16T07:59:15.915Z,28.11
2017-02-16T08:00:25.408Z,28.3
2017-02-16T08:01:35.670Z,28.48
2017-02-16T08:02:44.776Z,28.4
2017-02-16T08:03:54.693Z,28.5
2017-02-16T08:05:04.657Z,28.3
2017-02-16T08:06:13.418Z,28.48
2017-02-16T08:07:22.935Z,28.3
2017-02-16T08:08:32.443Z,28.4
2017-02-16T08:09:42.367Z,28.4
2017-02-16T08:10:52.708Z,28.3
2017-02-16T08:12:01.526Z,28.02
2017-02-16T08:13:10.709Z,28.11
2017-02-16T08:14:19.877Z,28.5
2017-02-16T08:15:29.435Z,28.11
2017-02-16T08:16:39.773Z,28.02
2017-02-16T08:17:49.359Z,28.11
2017-02-16T08:18:58.546Z,28.11
2017-02-16T08:20:08.850Z,28.3
2017-02-16T08:21:18.364Z,28.2
2017-02-16T08:22:29.071Z,28.2
2017-02-16T08:23:39.407Z,28.4
2017-02-16T08:24:49.342Z,28.69
2017-02-16T08:25:58.855Z,28.69
2017-02-16T08:27:07.640Z,28.69
2017-02-16T08:28:17.244Z,28.2
2017-02-16T08:29:27.216Z,28.3
2017-02-16T08:30:37.171Z,28.3
2017-02-16T08:31:47.127Z,28.3
2017-02-16T08:32:57.807Z,28.4
2017-02-16T08:34:06.982Z,28.02
2017-02-16T08:35:16.182Z,28.2
2017-02-16T08:36:25.372Z,28.2
2017-02-16T08:37:34.962Z,28.11
2017-02-16T08:38:44.919Z,28.02
2017-02-16T08:39:54.863Z,28.11
2017-02-16T08:41:04.438Z,28.02
2017-02-16T08:42:14.407Z,28.02
2017-02-16T08:43:24.387Z,27.72
2017-02-16T08:44:34.748Z,27.72
2017-02-16T08:45:44.332Z,27.72
2017-02-16T08:46:53.923Z,27.92
2017-02-16T08:48:03.898Z,27.82
2017-02-16T08:49:13.423Z,27.62
2017-02-16T08:50:23.319Z,27.62
2017-02-16T08:51:32.882Z,27.92
2017-02-16T08:52:42.866Z,27.92
2017-02-16T08:53:52.824Z,28.02
2017-02-16T08:55:02.366Z,27.72
2017-02-16T08:56:11.969Z,27.53
2017-02-16T08:57:21.944Z,27.45
2017-02-16T08:58:31.883Z,27.55
2017-02-16T08:59:41.073Z,27.55
2017-02-16T09:00:50.296Z,27.55
2017-02-16T09:02:00.246Z,27.45
2017-02-16T09:03:09.821Z,27.25
2017-02-16T09:04:19.374Z,27.35
2017-02-16T09:05:29.302Z,27.25
2017-02-16T09:06:38.854Z,27.45
2017-02-16T09:07:48.829Z,27.25
2017-02-16T09:08:59.185Z,27.45
2017-02-16T09:10:09.533Z,27.25
2017-02-16T09:11:19.874Z,27.25
2017-02-16T09:12:29.815Z,27.15
2017-02-16T09:13:39.008Z,27.15
2017-02-16T09:14:48.957Z,27.35
2017-02-16T09:15:59.305Z,27.35
2017-02-16T09:17:09.249Z,27.15
2017-02-16T09:18:18.392Z,27.25
2017-02-16T09:19:27.176Z,27.25
2017-02-16T09:20:37.490Z,27.45
2017-02-16T09:21:46.625Z,27.45
2017-02-16T09:22:56.579Z,27.45
2017-02-16T09:24:06.504Z,27.35
2017-02-16T09:25:15.640Z,27.35
2017-02-16T09:26:25.204Z,27.55
2017-02-16T09:27:34.389Z,27.35
2017-02-16T09:28:44.332Z,27.55
2017-02-16T09:29:54.276Z,27.35
2017-02-16T09:31:04.251Z,27.35
2017-02-16T09:32:14.205Z,27.55
2017-02-16T09:33:24.537Z,27.45
2017-02-16T09:34:35.298Z,27.53
2017-02-16T09:35:44.481Z,27.35
2017-02-16T09:36:53.626Z,27.55
2017-02-16T09:38:03.525Z,27.45
2017-02-16T09:39:12.671Z,27.45
2017-02-16T09:40:22.580Z,27.35
2017-02-16T09:41:31.755Z,27.45
2017-02-16T09:42:40.891Z,27.35
2017-02-16T09:43:50.026Z,27.55
2017-02-16T09:44:59.979Z,27.55
2017-02-16T09:46:09.935Z,27.35
2017-02-16T09:47:19.493Z,27.55
2017-02-16T09:48:29.794Z,27.45
2017-02-16T09:49:38.925Z,27.45
2017-02-16T09:50:48.498Z,27.55
2017-02-16T09:51:58.454Z,27.55
2017-02-16T09:53:08.027Z,27.45
2017-02-16T09:54:17.973Z,27.45
2017-02-16T09:55:27.541Z,27.64
2017-02-16T09:56:36.734Z,27.45
2017-02-16T09:57:47.038Z,27.45
2017-02-16T09:58:57.321Z,27.45
2017-02-16T10:00:07.250Z,27.45
2017-02-16T10:01:16.386Z,27.45
2017-02-16T10:02:26.312Z,27.45
2017-02-16T10:03:35.465Z,27.55
2017-02-16T10:04:44.660Z,27.45
2017-02-16T10:05:54.996Z,27.25
2017-02-16T10:07:04.974Z,27.15
2017-02-16T10:08:14.530Z,27.25
2017-02-16T10:09:24.894Z,27.25
2017-02-16T10:10:34.791Z,27.35
2017-02-16T10:11:44.370Z,27.35
2017-02-16T10:12:54.703Z,27.45
2017-02-16T10:14:03.872Z,27.35
2017-02-16T10:15:13.809Z,27.55
2017-02-16T10:16:23.776Z,27.35
2017-02-16T10:17:34.122Z,27.25
2017-02-16T10:18:44.078Z,27.35
2017-02-16T10:19:53.243Z,27.25
2017-02-16T10:21:02.428Z,26.97
2017-02-16T10:23:09.752Z,27.25
2017-02-16T10:24:19.777Z,27.08
2017-02-16T10:25:29.355Z,26.88
2017-02-16T10:26:38.925Z,27.06
2017-02-16T10:27:49.258Z,26.88
2017-02-16T10:28:59.209Z,26.88
2017-02-16T10:30:09.168Z,26.78
2017-02-16T10:31:19.080Z,27.08
2017-02-16T10:32:27.838Z,27.08
2017-02-16T10:33:37.017Z,27.06
2017-02-16T10:34:46.590Z,26.87
2017-02-16T10:35:56.553Z,26.97
2017-02-16T10:37:06.114Z,27.17
2017-02-16T10:38:16.420Z,26.78
2017-02-16T10:39:25.179Z,27.08
2017-02-16T10:40:35.181Z,27.08
2017-02-16T10:41:45.109Z,26.68
2017-02-16T10:42:54.675Z,26.59
2017-02-16T10:44:04.609Z,26.98
2017-02-16T10:45:13.789Z,26.4
2017-02-16T10:46:24.134Z,26.59
2017-02-16T10:47:33.649Z,25.93
2017-02-16T10:48:43.574Z,26.51
2017-02-16T10:49:52.794Z,26.51
2017-02-16T10:51:02.367Z,25.93
2017-02-16T10:52:12.315Z,25.73
2017-02-16T10:53:22.246Z,25.73
2017-02-16T10:54:31.781Z,25.73
2017-02-16T10:55:41.349Z,25.74
2017-02-16T10:56:51.268Z,25.65
2017-02-16T10:58:00.778Z,24.97
2017-02-16T10:59:10.377Z,24.6
2017-02-16T11:00:19.152Z,24.6
2017-02-16T11:01:29.489Z,24.4
2017-02-16T11:02:45.819Z,24.21
2017-02-16T11:03:55.349Z,24.12
2017-02-16T11:05:05.266Z,23.93
2017-02-16T11:06:15.229Z,23.25
2017-02-16T11:07:24.779Z,23.07
2017-02-16T11:08:34.594Z,23.07
2017-02-16T11:09:44.562Z,22.78
2017-02-16T11:10:54.105Z,22.79
2017-02-16T11:12:03.607Z,22.12
2017-02-16T11:13:12.763Z,21.93
2017-02-16T11:14:23.114Z,21.84
2017-02-16T11:15:33.059Z,21.26
2017-02-16T11:16:42.633Z,20.77
2017-02-16T11:17:51.800Z,20.88
2017-02-16T11:19:01.320Z,21.17
2017-02-16T11:20:10.487Z,21.27
2017-02-16T11:21:20.815Z,20.98
2017-02-16T11:22:30.415Z,20.78
2017-02-16T11:23:40.373Z,20.59
2017-02-16T11:24:49.902Z,20.31
2017-02-16T11:25:59.392Z,20.21
2017-02-16T11:27:08.889Z,19.83
2017-02-16T11:28:18.401Z,19.25
2017-02-16T11:29:28.349Z,18.78
2017-02-16T11:30:37.529Z,18.78
2017-02-16T11:31:46.698Z,18.39
2017-02-16T11:32:56.955Z,18.21
2017-02-16T11:34:06.480Z,17.91
2017-02-16T11:35:16.770Z,17.92
2017-02-16T11:36:26.341Z,17.82
2017-02-16T11:37:36.323Z,17.92
2017-02-16T11:38:45.492Z,18.11
2017-02-16T11:39:55.066Z,18.11
2017-02-16T11:41:04.197Z,18.78
2017-02-16T11:42:13.377Z,19.17
2017-02-16T11:43:22.544Z,19.55
2017-02-16T11:44:32.130Z,19.64
2017-02-16T11:45:41.314Z,20.21
2017-02-16T11:46:50.888Z,20.6
2017-02-16T11:48:00.056Z,20.7
2017-02-16T11:49:09.267Z,21.17
2017-02-16T11:50:18.827Z,21.37
2017-02-16T11:51:28.783Z,21.36
2017-02-16T11:52:37.917Z,21.65
2017-02-16T11:53:47.449Z,21.94
2017-02-16T11:54:56.574Z,22.31
2017-02-16T11:56:06.115Z,22.02
2017-02-16T11:57:15.293Z,22.12
2017-02-16T11:58:25.623Z,21.93
2017-02-16T11:59:34.413Z,22.11
2017-02-16T12:00:44.020Z,22.6
2017-02-16T12:01:53.956Z,22.5
2017-02-16T12:03:03.126Z,22.6
2017-02-16T12:04:12.700Z,22.5
2017-02-16T12:05:22.289Z,22.6
2017-02-16T12:06:32.235Z,22.6
2017-02-16T12:07:41.803Z,22.5
2017-02-16T12:08:50.974Z,22.4
2017-02-16T12:10:01.339Z,22.4
2017-02-16T12:11:10.907Z,22.4
2017-02-16T12:12:20.857Z,22.4
2017-02-16T12:13:29.670Z,22.69
2017-02-16T12:14:38.856Z,22.69
2017-02-16T12:15:48.040Z,22.4
2017-02-16T12:16:57.224Z,22.4
2017-02-16T12:18:06.398Z,22.6
2017-02-16T12:19:15.565Z,22.6
2017-02-16T12:20:25.491Z,22.6
2017-02-16T12:21:35.466Z,22.6
2017-02-16T12:22:44.688Z,22.6
2017-02-16T12:23:53.861Z,22.69
2017-02-16T12:25:04.146Z,22.69
2017-02-16T12:26:14.113Z,22.79
2017-02-16T12:27:23.686Z,22.99
2017-02-16T12:28:34.022Z,23.47
2017-02-16T12:29:43.207Z,22.99
2017-02-16T12:30:52.783Z,23.36
2017-02-16T12:32:03.090Z,23.36
2017-02-16T12:33:12.615Z,23.46
2017-02-16T12:34:22.177Z,23.85
2017-02-16T12:35:31.731Z,23.64
2017-02-16T12:36:41.701Z,23.44
2017-02-16T12:37:52.396Z,23.74
2017-02-16T12:39:02.398Z,23.83
2017-02-16T12:40:11.944Z,23.83
2017-02-16T12:41:20.708Z,23.54
2017-02-16T12:42:29.486Z,24.03
2017-02-16T12:43:39.005Z,24.51
2017-02-16T12:44:49.339Z,24.32
2017-02-16T12:45:58.904Z,24.22
2017-02-16T12:47:08.497Z,24.12
2017-02-16T12:48:18.434Z,24.51
2017-02-16T12:49:28.021Z,24.3
2017-02-16T12:50:37.971Z,24.51
2017-02-16T12:51:47.157Z,24.41
2017-02-16T12:52:56.729Z,24.79
2017-02-16T12:54:07.059Z,24.79
2017-02-16T12:55:16.602Z,24.79
2017-02-16T12:56:25.726Z,25.08
2017-02-16T12:57:36.004Z,24.8
2017-02-16T12:58:46.341Z,24.4
2017-02-16T12:59:56.686Z,24.32
2017-02-16T13:01:06.658Z,24.9
2017-02-16T13:02:16.213Z,24.41
2017-02-16T13:03:25.770Z,24.5
2017-02-16T13:04:34.944Z,24.9
2017-02-16T13:05:44.175Z,24.5
2017-02-16T13:06:53.351Z,24.8
2017-02-16T13:08:03.289Z,24.4
2017-02-16T13:09:13.653Z,24.69
2017-02-16T13:10:23.212Z,24.8
2017-02-16T13:11:33.155Z,24.51
2017-02-16T13:12:42.735Z,24.69
2017-02-16T13:13:51.881Z,24.71
2017-02-16T13:15:02.173Z,25.08
2017-02-16T13:16:12.127Z,24.6
2017-02-16T13:17:22.077Z,24.6
2017-02-16T13:18:31.232Z,24.98
2017-02-16T13:19:40.347Z,24.69
2017-02-16T13:20:49.526Z,24.79
2017-02-16T13:21:58.681Z,25.37
2017-02-16T13:23:08.591Z,25.37
2017-02-16T13:24:18.154Z,25.08
2017-02-16T13:25:27.335Z,25.16
2017-02-16T13:26:36.513Z,26.04
2017-02-16T13:27:46.065Z,25.55
2017-02-16T13:28:55.629Z,25.36
2017-02-16T13:30:05.964Z,25.36
2017-02-16T13:31:14.744Z,25.84
2017-02-16T13:32:24.316Z,26.14
2017-02-16T13:33:34.213Z,26.23
2017-02-16T13:34:43.773Z,25.46
2017-02-16T13:35:52.952Z,26.03
2017-02-16T13:37:02.897Z,25.73
2017-02-16T13:38:12.834Z,25.73
2017-02-16T13:39:22.409Z,25.83
2017-02-16T13:40:31.974Z,25.93
2017-02-16T13:41:40.768Z,26.51
2017-02-16T13:42:49.956Z,26.41
2017-02-16T13:43:59.128Z,26.21
2017-02-16T13:45:08.708Z,26.61
2017-02-16T13:46:19.041Z,26.41
2017-02-16T13:47:28.210Z,26.21
2017-02-16T13:48:37.361Z,26.79
2017-02-16T13:49:46.539Z,26.51
2017-02-16T13:50:56.475Z,26.41
2017-02-16T13:52:06.427Z,26.31
2017-02-16T13:53:16.002Z,26.89
2017-02-16T13:54:26.311Z,26.89
2017-02-16T13:55:36.215Z,26.21
2017-02-16T13:56:45.402Z,26.31
2017-02-16T13:57:55.356Z,26.79
2017-02-16T13:59:05.681Z,26.31
2017-02-16T14:00:14.844Z,26.61
2017-02-16T14:01:24.460Z,26.61
2017-02-16T14:02:34.355Z,26.41
2017-02-16T14:03:44.642Z,26.79
2017-02-16T14:04:54.582Z,26.31
2017-02-16T14:06:04.137Z,26.51
2017-02-16T14:07:14.080Z,26.31
2017-02-16T14:08:22.889Z,26.89
2017-02-16T14:09:33.566Z,26.79
2017-02-16T14:10:43.496Z,26.79
2017-02-16T14:11:52.670Z,26.41
2017-02-16T14:13:03.008Z,26.99
2017-02-16T14:14:12.982Z,26.51
2017-02-16T14:15:23.325Z,26.21
2017-02-16T14:16:33.666Z,27.09
2017-02-16T14:17:44.030Z,26.79
2017-02-16T14:18:54.361Z,26.21
2017-02-16T14:20:03.505Z,26.79
2017-02-16T14:21:13.073Z,26.41
2017-02-16T14:22:23.046Z,26.79
2017-02-16T14:23:32.622Z,26.21
2017-02-16T14:24:42.957Z,26.51
2017-02-16T14:25:52.528Z,26.89
2017-02-16T14:27:02.091Z,26.99
2017-02-16T14:28:11.231Z,26.41
2017-02-16T14:29:21.129Z,26.21
2017-02-16T14:30:31.470Z,26.99
2017-02-16T14:31:41.790Z,26.79
2017-02-16T14:32:52.090Z,26.41
2017-02-16T14:34:02.459Z,26.61
2017-02-16T14:35:12.018Z,26.51
2017-02-16T14:36:21.585Z,26.51
2017-02-16T14:37:32.312Z,26.41
2017-02-16T14:38:43.022Z,26.51
2017-02-16T14:39:53.013Z,26.41
2017-02-16T14:41:02.199Z,26.51
2017-02-16T14:42:12.143Z,26.51
2017-02-16T14:43:21.701Z,26.79
2017-02-16T14:44:30.856Z,26.99
2017-02-16T14:45:40.818Z,26.79
2017-02-16T14:46:51.537Z,26.41
2017-02-16T14:48:00.288Z,26.41
2017-02-16T14:49:10.624Z,26.99
2017-02-16T14:50:20.980Z,26.31
2017-02-16T14:51:30.557Z,26.79
2017-02-16T14:52:40.495Z,26.21
2017-02-16T14:53:50.457Z,26.21
2017-02-16T14:54:59.631Z,26.21
2017-02-16T14:56:09.583Z,26.79
2017-02-16T14:57:19.532Z,26.51
2017-02-16T14:58:29.100Z,26.41
2017-02-16T14:59:39.426Z,26.79
2017-02-16T15:00:49.394Z,26.31
2017-02-16T15:01:59.154Z,26.31